createdAt,value
2019-03-15T00:00:26.276Z,42.06
2019-03-15T00:20:34.598Z,29.17
2019-03-15T00:40:43.946Z,44.52
2019-03-15T01:00:53.393Z,43.48
2019-03-15T01:21:02.768Z,55.81
2019-03-15T01:41:12.278Z,39.79
2019-03-15T02:01:21.712Z,64.54
2019-03-15T02:21:31.200Z,43.32
2019-03-15T02:41:40.768Z,62.47
2019-03-15T03:01:50.179Z,66.27
2019-03-15T03:22:04.087Z,70.22
2019-03-15T03:42:03.737Z,61.11
2019-03-15T04:02:13.140Z,52.07
2019-03-15T04:22:22.682Z,52.99
2019-03-15T04:42:34.294Z,77.60
2019-03-15T05:02:33.830Z,58.51
2019-03-15T05:22:43.260Z,74.85
2019-03-15T05:42:52.695Z,35.44
2019-03-15T06:03:02.058Z,42.11
2019-03-15T06:23:16.714Z,68.45
2019-03-15T06:43:13.464Z,45.24
2019-03-15T07:03:23.783Z,72.44
2019-03-15T07:23:23.183Z,48.37
2019-03-15T07:43:32.511Z,48.76
2019-03-15T08:03:44.094Z,42.78
2019-03-15T08:23:45.723Z,38.09
2019-03-15T08:43:46.158Z,35.28
2019-03-15T09:03:53.930Z,33.58
2019-03-15T09:24:05.719Z,32.58
2019-03-15T09:44:07.330Z,30.05
2019-03-15T10:04:07.621Z,32.55
2019-03-15T10:24:11.613Z,29.06
2019-03-15T10:44:11.111Z,27.47
2019-03-15T11:04:20.639Z,24.97
2019-03-15T11:24:29.986Z,24.31
2019-03-15T11:44:39.485Z,19.47
2019-03-15T12:04:48.894Z,12.43
2019-03-15T12:24:59.322Z,16.57
2019-03-15T12:44:58.675Z,24.98
2019-03-15T13:05:08.076Z,16.64
2019-03-15T13:25:17.507Z,17.60
2019-03-15T13:45:27.053Z,16.48
2019-03-15T14:05:36.639Z,18.40
2019-03-15T14:25:48.275Z,26.01
2019-03-15T14:45:47.852Z,23.40
2019-03-15T15:05:57.117Z,26.07
2019-03-15T15:26:06.650Z,25.82
2019-03-15T15:46:16.187Z,17.05
2019-03-15T16:06:28.391Z,16.40
2019-03-15T16:26:27.745Z,16.39
2019-03-15T16:46:39.567Z,14.71
2019-03-15T17:06:39.080Z,13.70
2019-03-15T17:26:51.338Z,13.85
2019-03-15T17:46:58.034Z,18.89
2019-03-15T18:07:07.541Z,12.46
2019-03-15T18:27:21.825Z,24.09
2019-03-15T18:47:21.673Z,25.12
2019-03-15T19:07:31.181Z,15.14
2019-03-15T19:27:43.031Z,18.03
2019-03-15T19:47:44.594Z,16.08
2019-03-15T20:07:44.356Z,19.32
2019-03-15T20:27:53.792Z,14.11
2019-03-15T20:48:05.064Z,19.94
2019-03-15T21:08:05.173Z,26.08
2019-03-15T21:28:05.089Z,26.55
2019-03-15T21:48:14.436Z,26.75
2019-03-15T22:08:24.095Z,24.68
2019-03-15T22:28:33.480Z,29.30
2019-03-15T22:48:42.866Z,30.68
2019-03-15T23:08:52.531Z,53.26
2019-03-15T23:29:01.864Z,36.50
2019-03-15T23:49:11.253Z,51.42
